Enter the Airport ICAO Code

Search by Airport or City

Current Weather

SCIE | Carriel Sur International Airport

Concepción, Chile

Last Update 7 Minutes Ago

Completely Cloudy Sky

Temperature of 13 ºC

Light Winds from North

Temperature

13 ºC

Dew Point Temperature

11 ºC

Relative Humidity

87.71 %

Wind Direction

North (010º, Ranging from 330º to 030º)

Wind Velocity

7 km/h (04 kt)

Gusts

None

Visibility

Greater than 10 Kilometers

Sea Level Pressure

1023 hPa (Hectopascals)

Layers of Clouds

30% to 60% of Sky Covered from 305 mts (1000 ft) Above Ground Level.

90% to 100% of Sky Covered from 1067 mts (3500 ft) Above Ground Level.

METAR SCIE 210000Z 01004KT 330V030 9999 SCT010 OVC035 13/11 Q1023

Weather Forecast

SCIE | Carriel Sur International Airport

Concepción, Chile

Forecast valid for the next 24 Hours

From now on it is expected:

Mostly Cloudy Sky

Light to Moderate Winds from SouthWest

In 1 hour it is expected the begining of 9 hours with intermittent periods of:

Mist

Light to Moderate Winds from South

In 15 to 17 hours it is expected the begining of:

Moderate Winds from SouthWest

In 18 to 20 hours it is expected the begining of:

Partly Cloudy Sky

Maximum Temperature

15 ºC in 18 Hours

Minimum Temperature

10 ºC in 10 Hours

TAF SCIE 202210Z 2100/2124 22006KT 9999 BKN012 BKN030 TX15/2118Z TN10/2110Z TEMPO 2101/2110 19005KT 4000 BR BKN005 OVC008 BECMG 2110/2112 9999 BKN010 BKN015 BECMG 2115/2117 22015KT BKN035 BECMG 2118/2120 SCT040